createdAt,value
2018-08-03T00:01:49.415Z,98178.38
2018-08-03T00:04:18.735Z,98177.63
2018-08-03T00:06:47.337Z,98189.17
2018-08-03T00:09:16.949Z,98181.80
2018-08-03T00:11:45.831Z,98178.47
2018-08-03T00:14:15.826Z,98173.80
2018-08-03T00:16:45.670Z,98180.31
2018-08-03T00:19:15.038Z,98175.99
2018-08-03T00:21:43.710Z,98171.27
2018-08-03T00:24:14.161Z,98169.25
2018-08-03T00:26:43.507Z,98165.73
2018-08-03T00:29:12.390Z,98167.59
2018-08-03T00:31:42.526Z,98168.70
2018-08-03T00:34:12.155Z,98155.58
2018-08-03T00:36:40.860Z,98166.22
2018-08-03T00:39:11.322Z,98161.28
2018-08-03T00:41:40.530Z,98166.09
2018-08-03T00:44:11.416Z,98163.86
2018-08-03T00:46:40.630Z,98160.23
2018-08-03T00:49:09.339Z,98162.83
2018-08-03T00:51:37.989Z,98154.05
2018-08-03T00:54:06.693Z,98164.42
2018-08-03T00:56:36.162Z,98163.35
2018-08-03T00:59:06.839Z,98168.85
2018-08-03T01:01:36.365Z,98164.52
2018-08-03T01:04:06.190Z,98168.21
2018-08-03T01:06:34.897Z,98166.84
2018-08-03T01:09:03.807Z,98157.06
2018-08-03T01:11:32.535Z,98156.36
2018-08-03T01:14:01.189Z,98170.87
2018-08-03T01:16:32.251Z,98157.22
2018-08-03T01:19:01.471Z,98159.17
2018-08-03T01:21:30.713Z,98160.39
2018-08-03T01:24:00.254Z,98162.80
2018-08-03T01:26:30.095Z,98166.50
2018-08-03T01:28:58.772Z,98169.73
2018-08-03T01:31:27.518Z,98167.98
2018-08-03T01:33:56.165Z,98172.99
2018-08-03T01:36:24.930Z,98175.89
2018-08-03T01:38:54.441Z,98169.30
2018-08-03T01:41:23.452Z,98160.22
2018-08-03T01:43:52.650Z,98164.11
2018-08-03T01:46:22.954Z,98165.55
2018-08-03T01:48:52.299Z,98168.94
2018-08-03T01:51:21.496Z,98165.55
2018-08-03T01:53:51.057Z,98163.86
2018-08-03T01:56:19.739Z,98161.80
2018-08-03T01:58:49.426Z,98154.88
2018-08-03T02:01:18.929Z,98154.59
2018-08-03T02:03:47.831Z,98152.19
2018-08-03T02:06:18.357Z,98157.04
2018-08-03T02:08:48.253Z,98155.13
2018-08-03T02:11:17.628Z,98154.34
2018-08-03T02:13:47.738Z,98158.03
2018-08-03T02:16:17.799Z,98160.70
2018-08-03T02:18:47.232Z,98155.58
2018-08-03T02:21:16.733Z,98157.25
2018-08-03T02:23:46.007Z,98153.66
2018-08-03T02:26:15.214Z,98150.92
2018-08-03T02:28:43.923Z,98146.45
2018-08-03T02:31:13.038Z,98143.34
2018-08-03T02:33:42.364Z,98141.20
2018-08-03T02:36:12.857Z,98135.06
2018-08-03T02:38:42.651Z,98141.61
2018-08-03T02:41:12.253Z,98141.56
2018-08-03T02:43:41.673Z,98144.67
2018-08-03T02:46:10.358Z,98140.20
2018-08-03T02:48:41.375Z,98150.45
2018-08-03T02:51:10.585Z,98144.23
2018-08-03T02:53:40.805Z,98144.98
2018-08-03T02:56:09.443Z,98150.84
2018-08-03T02:58:38.608Z,98143.95
2018-08-03T03:01:08.257Z,98141.00
2018-08-03T03:03:37.652Z,98154.48
2018-08-03T03:06:07.432Z,98152.61
2018-08-03T03:08:36.767Z,98156.15
2018-08-03T03:11:06.340Z,98158.10
2018-08-03T03:13:35.937Z,98158.10
2018-08-03T03:16:05.412Z,98155.78
2018-08-03T03:18:34.584Z,98151.45
2018-08-03T03:21:03.390Z,98146.91
2018-08-03T03:23:33.158Z,98147.92
2018-08-03T03:26:03.078Z,98149.21
2018-08-03T03:28:32.484Z,98144.60
2018-08-03T03:31:01.961Z,98147.13
2018-08-03T03:33:31.212Z,98144.24
2018-08-03T03:36:00.469Z,98150.83
2018-08-03T03:38:29.278Z,98146.71
2018-08-03T03:40:58.751Z,98148.44
2018-08-03T03:43:29.265Z,98147.70
2018-08-03T03:45:58.930Z,98144.16
2018-08-03T03:48:29.367Z,98143.53
2018-08-03T03:50:59.450Z,98148.13
2018-08-03T03:53:28.034Z,98144.77
2018-08-03T03:55:56.635Z,98146.90
2018-08-03T03:58:25.884Z,98154.64
2018-08-03T04:00:54.731Z,98148.72
2018-08-03T04:03:23.571Z,98156.14
2018-08-03T04:05:52.352Z,98156.14
2018-08-03T04:08:21.243Z,98152.99
2018-08-03T04:10:49.945Z,98156.67
2018-08-03T04:13:19.200Z,98158.45
2018-08-03T04:15:47.910Z,98153.67
2018-08-03T04:18:21.554Z,98151.29
2018-08-03T04:20:51.523Z,98149.70
2018-08-03T04:23:21.569Z,98152.83
2018-08-03T04:25:51.575Z,98149.51
2018-08-03T04:28:20.834Z,98155.13
2018-08-03T04:30:50.994Z,98156.50
2018-08-03T04:33:20.505Z,98149.16
2018-08-03T04:35:49.225Z,98161.36
2018-08-03T04:38:17.803Z,98162.06
2018-08-03T04:40:47.030Z,98165.25
2018-08-03T04:43:16.481Z,98165.77
2018-08-03T04:45:45.875Z,98160.42
2018-08-03T04:48:14.621Z,98162.02
2018-08-03T04:50:44.324Z,98163.10
2018-08-03T04:53:13.538Z,98160.05
2018-08-03T04:55:43.015Z,98164.60
2018-08-03T04:58:11.660Z,98178.76
2018-08-03T05:00:40.298Z,98179.99
2018-08-03T05:03:08.951Z,98181.16
2018-08-03T05:05:37.600Z,98188.29
2018-08-03T05:08:06.516Z,98185.11
2018-08-03T05:10:35.180Z,98186.70
2018-08-03T05:13:03.778Z,98187.14
2018-08-03T05:15:32.435Z,98181.06
2018-08-03T05:18:01.116Z,98186.71
2018-08-03T05:20:30.378Z,98183.08
2018-08-03T05:22:58.982Z,98187.85
2018-08-03T05:25:27.736Z,98185.41
2018-08-03T05:27:56.329Z,98191.08
2018-08-03T05:30:25.098Z,98195.89
2018-08-03T05:32:53.675Z,98198.86
2018-08-03T05:35:22.336Z,98194.64
2018-08-03T05:37:52.214Z,98191.39
2018-08-03T05:40:22.143Z,98200.97
2018-08-03T05:42:51.593Z,98195.04
2018-08-03T05:45:21.094Z,98190.09
2018-08-03T05:47:50.943Z,98191.31
2018-08-03T05:50:19.902Z,98187.21
2018-08-03T05:52:48.652Z,98183.70
2018-08-03T05:55:18.855Z,98190.56
2018-08-03T05:57:47.572Z,98195.06
2018-08-03T06:00:16.222Z,98195.36
2018-08-03T06:02:44.903Z,98194.68
2018-08-03T06:05:14.505Z,98196.28
2018-08-03T06:07:43.114Z,98199.52
2018-08-03T06:10:12.563Z,98195.68
2018-08-03T06:12:41.779Z,98208.26
2018-08-03T06:15:11.502Z,98215.75
2018-08-03T06:17:41.072Z,98221.56
2018-08-03T06:20:12.107Z,98217.09
2018-08-03T06:22:41.099Z,98208.83
2018-08-03T06:25:10.498Z,98210.08
2018-08-03T06:27:39.185Z,98183.59
2018-08-03T06:30:10.142Z,98183.59
2018-08-03T06:32:39.314Z,98181.86
2018-08-03T06:35:08.248Z,98177.39
2018-08-03T06:37:37.222Z,98181.38
2018-08-03T06:40:05.916Z,98183.80
2018-08-03T06:42:34.605Z,98190.06
2018-08-03T06:45:03.307Z,98194.09
2018-08-03T06:47:31.928Z,98195.03
2018-08-03T06:50:00.582Z,98198.78
2018-08-03T06:52:29.859Z,98201.30
2018-08-03T06:54:58.529Z,98205.66
2018-08-03T06:57:27.929Z,98204.45
2018-08-03T06:59:56.532Z,98198.58
2018-08-03T07:02:25.155Z,98196.12
2018-08-03T07:04:54.181Z,98195.23
2018-08-03T07:07:22.799Z,98189.13
2018-08-03T07:09:51.461Z,98196.35
2018-08-03T07:12:20.206Z,98195.77
2018-08-03T07:14:48.868Z,98189.94
2018-08-03T07:17:17.520Z,98191.52
2018-08-03T07:19:46.171Z,98192.90
2018-08-03T07:22:14.874Z,98192.55
2018-08-03T07:24:44.236Z,98193.64
2018-08-03T07:27:13.511Z,98195.86
2018-08-03T07:29:42.174Z,98198.11
2018-08-03T07:32:10.819Z,98187.53
2018-08-03T07:34:39.474Z,98191.17
2018-08-03T07:37:08.181Z,98183.97
2018-08-03T07:39:37.751Z,98183.88
2018-08-03T07:42:06.434Z,98193.36
2018-08-03T07:44:35.106Z,98186.84
2018-08-03T07:47:03.761Z,98196.36
2018-08-03T07:49:32.450Z,98187.08
2018-08-03T07:52:01.082Z,98183.97
2018-08-03T07:54:29.782Z,98188.50
2018-08-03T07:56:59.837Z,98184.97
2018-08-03T07:59:28.742Z,98184.61
2018-08-03T08:01:58.646Z,98180.28
2018-08-03T08:04:27.941Z,98173.97
2018-08-03T08:06:56.903Z,98176.12
2018-08-03T08:09:26.286Z,98175.73
2018-08-03T08:11:56.810Z,98177.50
2018-08-03T08:14:26.817Z,98172.00
2018-08-03T08:16:56.786Z,98175.55
2018-08-03T08:19:26.201Z,98167.62
2018-08-03T08:21:56.026Z,98170.73
2018-08-03T08:24:25.360Z,98168.17
2018-08-03T08:26:54.905Z,98171.48
2018-08-03T08:29:24.487Z,98171.33
2018-08-03T08:31:53.140Z,98169.51
2018-08-03T08:34:21.795Z,98157.05
2018-08-03T08:36:50.519Z,98159.21
2018-08-03T08:39:19.301Z,98158.40
2018-08-03T08:41:48.138Z,98149.89
2018-08-03T08:44:16.791Z,98160.95
2018-08-03T08:46:45.477Z,98154.53
2018-08-03T08:49:14.206Z,98153.74
2018-08-03T08:51:43.575Z,98152.67
2018-08-03T08:54:13.216Z,98144.48
2018-08-03T08:56:41.873Z,98144.05
2018-08-03T08:59:10.616Z,98152.86
2018-08-03T09:01:39.368Z,98149.19
2018-08-03T09:04:08.225Z,98141.12
2018-08-03T09:06:36.927Z,98149.53
2018-08-03T09:09:08.339Z,98149.55
2018-08-03T09:11:37.082Z,98145.93
2018-08-03T09:14:05.760Z,98154.01
2018-08-03T09:16:34.433Z,98152.14
2018-08-03T09:19:03.400Z,98144.32
2018-08-03T09:21:32.295Z,98143.12
2018-08-03T09:24:00.936Z,98141.63
2018-08-03T09:26:30.300Z,98130.56
2018-08-03T09:28:58.948Z,98131.58
2018-08-03T09:31:27.600Z,98123.77
2018-08-03T09:33:56.235Z,98123.16
2018-08-03T09:36:24.897Z,98121.65
2018-08-03T09:38:53.664Z,98124.17
2018-08-03T09:41:22.981Z,98123.12
2018-08-03T09:43:51.652Z,98126.19
2018-08-03T09:46:20.333Z,98115.25
2018-08-03T09:48:49.242Z,98115.20
2018-08-03T09:51:18.239Z,98114.16
2018-08-03T09:53:47.624Z,98112.13
2018-08-03T09:56:16.270Z,98110.91
2018-08-03T09:58:45.504Z,98107.22
2018-08-03T10:01:14.221Z,98110.05
2018-08-03T10:03:43.461Z,98100.63
2018-08-03T10:06:12.951Z,98099.78
2018-08-03T10:08:41.737Z,98105.77
2018-08-03T10:11:10.622Z,98108.31
2018-08-03T10:13:39.456Z,98103.09
2018-08-03T10:16:08.153Z,98096.91
2018-08-03T10:18:36.835Z,98090.05
2018-08-03T10:21:05.836Z,98094.83
2018-08-03T10:23:34.440Z,98094.74
2018-08-03T10:26:03.733Z,98084.39
2018-08-03T10:28:32.504Z,98083.19
2018-08-03T10:31:02.047Z,98089.92
2018-08-03T10:33:30.677Z,98083.66
2018-08-03T10:35:59.824Z,98078.63
2018-08-03T10:38:28.576Z,98081.23
2018-08-03T10:40:57.370Z,98080.02
2018-08-03T10:43:26.467Z,98069.16
2018-08-03T10:45:57.092Z,98078.34
2018-08-03T10:48:25.749Z,98077.69
2018-08-03T10:50:55.989Z,98078.65
2018-08-03T10:53:24.729Z,98076.22
2018-08-03T10:55:54.895Z,98072.64
2018-08-03T10:58:23.725Z,98073.37
2018-08-03T11:00:52.721Z,98041.36
2018-08-03T11:03:22.242Z,98066.73
2018-08-03T11:05:50.889Z,98063.32
2018-08-03T11:08:19.570Z,98059.05
2018-08-03T11:10:48.742Z,98059.92
2018-08-03T11:13:17.355Z,98056.05
2018-08-03T11:15:46.045Z,98039.43
2018-08-03T11:18:14.726Z,98040.60
2018-08-03T11:20:43.859Z,98036.73
2018-08-03T11:23:12.492Z,98037.35
2018-08-03T11:25:41.699Z,98037.41
2018-08-03T11:30:45.968Z,98032.73
2018-08-03T11:33:14.997Z,98030.55
2018-08-03T11:35:43.683Z,98028.57
2018-08-03T11:38:12.511Z,98026.06
2018-08-03T11:40:41.592Z,98017.31
2018-08-03T11:43:10.420Z,98022.14
2018-08-03T11:45:39.388Z,98015.06
2018-08-03T11:48:08.708Z,98013.86
2018-08-03T11:50:37.539Z,98006.53
2018-08-03T11:53:06.241Z,98006.27
2018-08-03T11:55:35.834Z,98005.20
2018-08-03T11:58:05.399Z,98005.82
2018-08-03T12:00:34.101Z,98001.42
2018-08-03T12:03:03.693Z,98007.05
2018-08-03T12:05:32.947Z,97974.03
2018-08-03T12:08:02.074Z,97990.42
2018-08-03T12:10:30.738Z,97989.03
2018-08-03T12:12:59.650Z,97983.16
2018-08-03T12:15:28.504Z,97987.16
2018-08-03T12:17:57.360Z,97989.20
2018-08-03T12:20:26.775Z,97978.73
2018-08-03T12:22:55.617Z,97984.27
2018-08-03T12:25:24.367Z,97980.05
2018-08-03T12:27:53.051Z,97980.85
2018-08-03T12:30:22.535Z,97982.14
2018-08-03T12:32:51.326Z,97975.02
2018-08-03T12:35:20.383Z,97973.39
2018-08-03T12:37:49.092Z,97967.25
2018-08-03T12:40:18.084Z,97966.27
2018-08-03T12:42:47.552Z,97966.74
2018-08-03T12:45:16.992Z,97966.19
2018-08-03T12:47:46.451Z,97965.65
2018-08-03T12:50:16.047Z,97953.64
2018-08-03T12:52:45.583Z,97951.73
2018-08-03T12:55:14.305Z,97954.31
2018-08-03T12:57:43.935Z,97959.47
2018-08-03T13:00:13.161Z,97952.38
2018-08-03T13:02:41.891Z,97954.20
2018-08-03T13:05:10.592Z,97957.39
2018-08-03T13:07:40.139Z,97959.78
2018-08-03T13:10:09.042Z,97961.02
2018-08-03T13:12:38.131Z,97958.01
2018-08-03T13:15:08.181Z,97952.02
2018-08-03T13:17:37.089Z,97950.09
2018-08-03T13:20:07.985Z,97947.12
2018-08-03T13:22:37.532Z,97936.34
2018-08-03T13:25:06.573Z,97938.31
2018-08-03T13:27:35.209Z,97936.55
2018-08-03T13:30:04.008Z,97932.09
2018-08-03T13:32:33.421Z,97927.94
2018-08-03T13:35:02.054Z,97926.42
2018-08-03T13:37:30.828Z,97926.80
2018-08-03T13:39:59.556Z,97929.82
2018-08-03T13:42:28.544Z,97926.23
2018-08-03T13:44:57.240Z,97919.81
2018-08-03T13:47:25.873Z,97912.70
2018-08-03T13:49:54.587Z,97917.73
2018-08-03T13:52:23.260Z,97914.56
2018-08-03T13:54:51.900Z,97914.14
2018-08-03T13:57:20.883Z,97912.91
2018-08-03T13:59:49.484Z,97911.91
2018-08-03T14:02:20.581Z,97908.22
2018-08-03T14:04:49.188Z,97907.38
2018-08-03T14:07:17.868Z,97911.22
2018-08-03T14:09:46.737Z,97908.15
2018-08-03T14:12:15.404Z,97904.40
2018-08-03T14:14:44.040Z,97897.87
2018-08-03T14:17:14.338Z,97896.02
2018-08-03T14:19:45.206Z,97899.80
2018-08-03T14:22:14.042Z,97890.56
2018-08-03T14:24:42.686Z,97889.58
2018-08-03T14:27:11.357Z,97884.39
2018-08-03T14:29:40.087Z,97886.39
2018-08-03T14:32:09.942Z,97884.83
2018-08-03T14:34:38.619Z,97882.14
2018-08-03T14:37:07.924Z,97879.36
2018-08-03T14:39:36.529Z,97883.19
2018-08-03T14:42:05.950Z,97877.09
2018-08-03T14:44:35.586Z,97876.38
2018-08-03T14:47:05.629Z,97876.67
2018-08-03T14:49:34.942Z,97869.81
2018-08-03T14:52:05.315Z,97873.55
2018-08-03T14:54:33.969Z,97870.59
2018-08-03T14:57:03.420Z,97864.59
2018-08-03T14:59:32.224Z,97865.45
2018-08-03T15:02:00.937Z,97859.16
2018-08-03T15:04:29.608Z,97860.91
2018-08-03T15:06:58.491Z,97860.81
2018-08-03T15:09:27.204Z,97862.02
2018-08-03T15:11:55.951Z,97857.98
2018-08-03T15:14:25.495Z,97852.95
2018-08-03T15:16:54.186Z,97851.05
2018-08-03T15:19:23.748Z,97846.80
2018-08-03T15:21:52.499Z,97847.36
2018-08-03T15:24:22.082Z,97841.08
2018-08-03T15:26:50.965Z,97842.02
2018-08-03T15:29:19.628Z,97832.24
2018-08-03T15:31:48.885Z,97836.08
2018-08-03T15:34:17.651Z,97835.09
2018-08-03T15:36:46.462Z,97832.24
2018-08-03T15:39:15.039Z,97830.73
2018-08-03T15:41:44.218Z,97830.58
2018-08-03T15:44:13.818Z,97825.45
2018-08-03T15:46:43.885Z,97831.28
2018-08-03T15:49:12.631Z,97835.56
2018-08-03T15:51:41.418Z,97819.33
2018-08-03T15:54:10.021Z,97825.16
2018-08-03T15:56:38.706Z,97817.98
2018-08-03T15:59:07.383Z,97820.58
2018-08-03T16:01:36.060Z,97817.65
2018-08-03T16:04:04.889Z,97818.44
2018-08-03T16:06:36.724Z,97813.09
2018-08-03T16:09:08.828Z,97811.04
2018-08-03T16:11:37.470Z,97811.69
2018-08-03T16:14:07.561Z,97805.70
2018-08-03T16:16:36.259Z,97793.63
2018-08-03T16:19:04.919Z,97803.63
2018-08-03T16:21:34.548Z,97805.72
2018-08-03T16:24:03.617Z,97798.91
2018-08-03T16:26:33.279Z,97793.96
2018-08-03T16:29:01.951Z,97799.34
2018-08-03T16:31:31.017Z,97800.70
2018-08-03T16:33:59.909Z,97791.48
2018-08-03T16:36:28.650Z,97799.68
2018-08-03T16:39:03.750Z,97806.53
2018-08-03T16:41:32.615Z,97795.00
2018-08-03T16:44:01.346Z,97794.75
2018-08-03T16:46:30.264Z,97794.59
2018-08-03T16:48:58.893Z,97799.39
2018-08-03T16:51:27.967Z,97790.59
2018-08-03T16:53:56.694Z,97796.52
2018-08-03T16:56:25.358Z,97795.20
2018-08-03T16:58:54.146Z,97792.34
2018-08-03T17:01:22.950Z,97791.64
2018-08-03T17:03:51.630Z,97787.14
2018-08-03T17:06:20.308Z,97785.13
2018-08-03T17:08:48.938Z,97787.95
2018-08-03T17:11:17.600Z,97789.30
2018-08-03T17:13:46.274Z,97791.98
2018-08-03T17:16:14.950Z,97781.03
2018-08-03T17:18:44.329Z,97789.33
2018-08-03T17:21:13.131Z,97783.08
2018-08-03T17:23:41.836Z,97780.94
2018-08-03T17:26:10.458Z,97779.33
2018-08-03T17:28:39.275Z,97776.39
2018-08-03T17:31:08.482Z,97781.80
2018-08-03T17:33:37.147Z,97788.34
2018-08-03T17:36:06.175Z,97776.55
2018-08-03T17:38:34.788Z,97774.62
2018-08-03T17:41:04.173Z,97778.80
2018-08-03T17:43:32.871Z,97779.59
2018-08-03T17:46:01.528Z,97772.65
2018-08-03T17:48:30.873Z,97780.30
2018-08-03T17:51:00.646Z,97774.28
2018-08-03T17:53:29.380Z,97778.06
2018-08-03T17:55:59.017Z,97773.19
2018-08-03T17:58:28.370Z,97776.08
2018-08-03T18:00:57.059Z,97779.27
2018-08-03T18:03:25.769Z,97780.59
2018-08-03T18:05:54.517Z,97780.59
2018-08-03T18:08:23.172Z,97779.66
2018-08-03T18:10:52.636Z,97782.16
2018-08-03T18:13:21.307Z,97780.89
2018-08-03T18:15:50.019Z,97792.14
2018-08-03T18:18:18.577Z,97794.47
2018-08-03T18:20:47.297Z,97794.31
2018-08-03T18:23:15.965Z,97790.31
2018-08-03T18:25:49.021Z,97791.39
2018-08-03T18:28:18.342Z,97788.42
2018-08-03T18:30:47.112Z,97793.92
2018-08-03T18:33:15.745Z,97797.91
2018-08-03T18:35:45.018Z,97803.16
2018-08-03T18:38:13.979Z,97797.33
2018-08-03T18:40:42.586Z,97802.03
2018-08-03T18:43:11.609Z,97800.84
2018-08-03T18:45:40.474Z,97802.66
2018-08-03T18:48:09.225Z,97805.91
2018-08-03T18:50:37.891Z,97803.52
2018-08-03T18:53:06.721Z,97805.09
2018-08-03T18:55:36.433Z,97813.69
2018-08-03T18:58:05.226Z,97814.73
2018-08-03T19:00:33.942Z,97820.45
2018-08-03T19:03:03.465Z,97819.29
2018-08-03T19:05:32.831Z,97819.00
2018-08-03T19:08:01.611Z,97819.93
2018-08-03T19:10:30.342Z,97826.53
2018-08-03T19:12:59.017Z,97830.27
2018-08-03T19:15:28.262Z,97830.70
2018-08-03T19:17:56.925Z,97829.80
2018-08-03T19:20:25.602Z,97839.88
2018-08-03T19:22:55.100Z,97835.06
2018-08-03T19:25:24.176Z,97846.28
2018-08-03T19:27:52.908Z,97837.73
2018-08-03T19:30:21.575Z,97843.36
2018-08-03T19:32:50.849Z,97842.81
2018-08-03T19:35:19.603Z,97844.78
2018-08-03T19:37:48.670Z,97844.30
2018-08-03T19:40:17.987Z,97854.42
2018-08-03T19:42:46.845Z,97859.43
2018-08-03T19:45:15.968Z,97851.81
2018-08-03T19:47:44.711Z,97857.85
2018-08-03T19:50:13.645Z,97855.73
2018-08-03T19:52:42.834Z,97862.31
2018-08-03T19:55:11.557Z,97863.33
2018-08-03T19:57:40.766Z,97857.09
2018-08-03T20:00:11.654Z,97856.39
2018-08-03T20:02:41.012Z,97864.16
2018-08-03T20:05:11.344Z,97868.02
2018-08-03T20:07:39.971Z,97860.84
2018-08-03T20:10:09.469Z,97862.55
2018-08-03T20:12:38.118Z,97860.73
2018-08-03T20:15:07.449Z,97865.48
2018-08-03T20:17:36.166Z,97860.09
2018-08-03T20:20:04.970Z,97857.59
2018-08-03T20:22:33.694Z,97860.33
2018-08-03T20:25:02.393Z,97849.23
2018-08-03T20:27:31.249Z,97854.89
2018-08-03T20:29:59.988Z,97857.98
2018-08-03T20:32:28.681Z,97851.47
2018-08-03T20:34:57.518Z,97855.85
2018-08-03T20:37:26.491Z,97855.66
2018-08-03T20:39:55.312Z,97860.95
2018-08-03T20:42:24.085Z,97857.98
2018-08-03T20:44:53.124Z,97859.92
2018-08-03T20:47:21.848Z,97866.85
2018-08-03T20:49:50.693Z,97860.17
2018-08-03T20:52:19.659Z,97857.41
2018-08-03T20:54:49.236Z,97857.22
2018-08-03T20:57:18.203Z,97860.87
2018-08-03T20:59:46.879Z,97862.25
2018-08-03T21:02:15.477Z,97865.50
2018-08-03T21:04:44.470Z,97868.92
2018-08-03T21:07:13.115Z,97866.42
2018-08-03T21:09:41.876Z,97869.78
2018-08-03T21:12:10.619Z,97866.68
2018-08-03T21:14:40.075Z,97866.49
2018-08-03T21:17:08.723Z,97869.83
2018-08-03T21:19:37.361Z,97868.36
2018-08-03T21:22:06.047Z,97866.41
2018-08-03T21:24:34.849Z,97861.95
2018-08-03T21:27:03.829Z,97858.25
2018-08-03T21:29:32.519Z,97860.11
2018-08-03T21:32:01.132Z,97857.55
2018-08-03T21:34:29.771Z,97861.58
2018-08-03T21:36:58.519Z,97863.09
2018-08-03T21:39:27.213Z,97870.58
2018-08-03T21:41:55.885Z,97863.89
2018-08-03T21:44:25.226Z,97871.00
2018-08-03T21:46:54.633Z,97864.32
2018-08-03T21:49:23.262Z,97864.70
2018-08-03T21:51:51.902Z,97863.50
2018-08-03T21:54:21.421Z,97859.77
2018-08-03T21:56:50.758Z,97857.05
2018-08-03T21:59:19.378Z,97859.26
2018-08-03T22:01:48.952Z,97852.11
2018-08-03T22:04:17.577Z,97854.67
2018-08-03T22:06:46.489Z,97857.44
2018-08-03T22:09:15.100Z,97859.20
2018-08-03T22:11:43.841Z,97853.67
2018-08-03T22:14:12.518Z,97858.02
2018-08-03T22:16:41.164Z,97856.25
2018-08-03T22:19:09.809Z,97858.03
2018-08-03T22:21:38.421Z,97856.70
2018-08-03T22:24:07.064Z,97858.48
2018-08-03T22:26:36.551Z,97856.50
2018-08-03T22:29:05.327Z,97864.39
2018-08-03T22:31:34.513Z,97861.23
2018-08-03T22:34:03.898Z,97859.86
2018-08-03T22:36:32.582Z,97860.09
2018-08-03T22:39:01.708Z,97865.02
2018-08-03T22:41:30.720Z,97869.77
2018-08-03T22:43:59.414Z,97868.38
2018-08-03T22:46:28.082Z,97868.58
2018-08-03T22:48:56.732Z,97866.02
2018-08-03T22:51:25.410Z,97868.20
2018-08-03T22:53:54.714Z,97866.23
2018-08-03T22:56:23.333Z,97858.73
2018-08-03T22:58:52.710Z,97860.30
2018-08-03T23:01:21.433Z,97857.35
2018-08-03T23:03:50.256Z,97856.17
2018-08-03T23:06:19.118Z,97860.52
2018-08-03T23:08:48.906Z,97855.38
2018-08-03T23:11:18.337Z,97858.73
2018-08-03T23:13:47.010Z,97860.51
2018-08-03T23:16:15.666Z,97854.19
2018-08-03T23:18:44.331Z,97856.97
2018-08-03T23:21:12.990Z,97861.28
2018-08-03T23:23:41.711Z,97861.28
2018-08-03T23:26:10.409Z,97862.67
2018-08-03T23:28:39.212Z,97864.86
2018-08-03T23:31:07.980Z,97869.57
2018-08-03T23:33:37.327Z,97865.64
2018-08-03T23:36:06.179Z,97865.62
2018-08-03T23:38:34.788Z,97858.86
2018-08-03T23:41:03.472Z,97856.69
2018-08-03T23:43:32.868Z,97859.03
2018-08-03T23:46:01.680Z,97859.45
2018-08-03T23:48:30.294Z,97851.94
2018-08-03T23:50:59.193Z,97851.15
2018-08-03T23:53:28.318Z,97845.45
2018-08-03T23:55:56.927Z,97844.83
2018-08-03T23:58:25.625Z,97847.95
